sensor_id;sensor_type;location;lat;lon;timestamp;temperature;humidity
4501;DHT22;2263;54.654;9.410;2023-02-17T00:01:52;6.30;99.90
4501;DHT22;2263;54.654;9.410;2023-02-17T00:04:36;6.30;99.90
4501;DHT22;2263;54.654;9.410;2023-02-17T00:07:20;6.40;99.90
4501;DHT22;2263;54.654;9.410;2023-02-17T00:10:06;6.30;99.90
4501;DHT22;2263;54.654;9.410;2023-02-17T00:12:51;6.40;99.90
4501;DHT22;2263;54.654;9.410;2023-02-17T00:15:38;6.40;99.90
4501;DHT22;2263;54.654;9.410;2023-02-17T00:18:23;6.40;99.90
4501;DHT22;2263;54.654;9.410;2023-02-17T00:21:17;6.40;99.90
4501;DHT22;2263;54.654;9.410;2023-02-17T00:24:02;6.40;99.90
4501;DHT22;2263;54.654;9.410;2023-02-17T00:26:47;6.40;99.90
4501;DHT22;2263;54.654;9.410;2023-02-17T00:29:32;6.40;99.90
4501;DHT22;2263;54.654;9.410;2023-02-17T00:32:17;6.40;99.90
4501;DHT22;2263;54.654;9.410;2023-02-17T00:35:01;6.40;99.90
4501;DHT22;2263;54.654;9.410;2023-02-17T00:37:46;6.40;99.90
4501;DHT22;2263;54.654;9.410;2023-02-17T00:40:30;6.40;99.90
4501;DHT22;2263;54.654;9.410;2023-02-17T00:43:15;6.40;99.90
4501;DHT22;2263;54.654;9.410;2023-02-17T00:45:59;6.50;99.90
4501;DHT22;2263;54.654;9.410;2023-02-17T00:48:43;6.50;99.90
4501;DHT22;2263;54.654;9.410;2023-02-17T00:51:28;6.40;99.90
4501;DHT22;2263;54.654;9.410;2023-02-17T00:54:13;6.50;99.90
4501;DHT22;2263;54.654;9.410;2023-02-17T00:56:58;6.50;99.90
4501;DHT22;2263;54.654;9.410;2023-02-17T00:59:42;6.50;99.90
4501;DHT22;2263;54.654;9.410;2023-02-17T01:02:26;6.50;99.90
4501;DHT22;2263;54.654;9.410;2023-02-17T01:05:11;6.50;99.90
4501;DHT22;2263;54.654;9.410;2023-02-17T01:07:55;6.50;99.90
4501;DHT22;2263;54.654;9.410;2023-02-17T01:10:41;6.50;99.90
4501;DHT22;2263;54.654;9.410;2023-02-17T01:13:26;6.50;99.90
4501;DHT22;2263;54.654;9.410;2023-02-17T01:16:25;6.50;99.90
4501;DHT22;2263;54.654;9.410;2023-02-17T01:19:14;6.50;99.90
4501;DHT22;2263;54.654;9.410;2023-02-17T01:21:59;6.50;99.90
4501;DHT22;2263;54.654;9.410;2023-02-17T01:24:43;6.50;99.90
4501;DHT22;2263;54.654;9.410;2023-02-17T01:27:28;6.50;99.90
4501;DHT22;2263;54.654;9.410;2023-02-17T01:30:12;6.50;99.90
4501;DHT22;2263;54.654;9.410;2023-02-17T01:32:57;6.50;99.90
4501;DHT22;2263;54.654;9.410;2023-02-17T01:35:41;6.50;99.90
4501;DHT22;2263;54.654;9.410;2023-02-17T01:38:26;6.50;99.90
4501;DHT22;2263;54.654;9.410;2023-02-17T01:41:10;6.50;99.90
4501;DHT22;2263;54.654;9.410;2023-02-17T01:44:22;6.50;99.90
4501;DHT22;2263;54.654;9.410;2023-02-17T01:47:11;6.50;99.90
4501;DHT22;2263;54.654;9.410;2023-02-17T01:49:56;6.50;99.90
4501;DHT22;2263;54.654;9.410;2023-02-17T01:52:42;6.50;99.90
4501;DHT22;2263;54.654;9.410;2023-02-17T01:55:27;6.50;99.90
4501;DHT22;2263;54.654;9.410;2023-02-17T01:58:14;6.50;99.90
4501;DHT22;2263;54.654;9.410;2023-02-17T02:01:02;6.50;99.90
4501;DHT22;2263;54.654;9.410;2023-02-17T02:03:48;6.50;99.90
4501;DHT22;2263;54.654;9.410;2023-02-17T02:06:35;6.50;99.90
4501;DHT22;2263;54.654;9.410;2023-02-17T02:09:34;6.50;99.90
4501;DHT22;2263;54.654;9.410;2023-02-17T02:12:22;6.50;99.90
4501;DHT22;2263;54.654;9.410;2023-02-17T02:15:22;6.50;99.90
4501;DHT22;2263;54.654;9.410;2023-02-17T02:18:30;6.50;99.90
4501;DHT22;2263;54.654;9.410;2023-02-17T02:33:22;6.60;99.90
4501;DHT22;2263;54.654;9.410;2023-02-17T02:36:18;6.60;99.90
4501;DHT22;2263;54.654;9.410;2023-02-17T02:41:59;6.60;99.90
4501;DHT22;2263;54.654;9.410;2023-02-17T02:44:45;6.60;99.90
4501;DHT22;2263;54.654;9.410;2023-02-17T02:47:48;6.60;99.90
4501;DHT22;2263;54.654;9.410;2023-02-17T02:53:59;6.60;99.90
4501;DHT22;2263;54.654;9.410;2023-02-17T03:02:41;6.60;99.90
4501;DHT22;2263;54.654;9.410;2023-02-17T03:05:31;6.60;99.90
4501;DHT22;2263;54.654;9.410;2023-02-17T03:08:27;6.60;99.90
4501;DHT22;2263;54.654;9.410;2023-02-17T03:11:15;6.60;99.90
4501;DHT22;2263;54.654;9.410;2023-02-17T03:14:18;6.60;99.90
4501;DHT22;2263;54.654;9.410;2023-02-17T03:17:02;6.60;99.90
4501;DHT22;2263;54.654;9.410;2023-02-17T03:19:47;6.60;99.90
4501;DHT22;2263;54.654;9.410;2023-02-17T03:22:40;6.60;99.90
4501;DHT22;2263;54.654;9.410;2023-02-17T03:25:26;6.60;99.90
4501;DHT22;2263;54.654;9.410;2023-02-17T03:28:10;6.60;99.90
4501;DHT22;2263;54.654;9.410;2023-02-17T03:30:55;6.70;99.90
4501;DHT22;2263;54.654;9.410;2023-02-17T03:33:39;6.70;99.90
4501;DHT22;2263;54.654;9.410;2023-02-17T03:36:24;6.60;99.90
4501;DHT22;2263;54.654;9.410;2023-02-17T03:39:08;6.70;99.90
4501;DHT22;2263;54.654;9.410;2023-02-17T03:41:53;6.70;99.90
4501;DHT22;2263;54.654;9.410;2023-02-17T03:44:37;6.70;99.90
4501;DHT22;2263;54.654;9.410;2023-02-17T03:47:21;6.70;99.90
4501;DHT22;2263;54.654;9.410;2023-02-17T03:50:06;6.70;99.90
4501;DHT22;2263;54.654;9.410;2023-02-17T03:52:51;6.70;99.90
4501;DHT22;2263;54.654;9.410;2023-02-17T03:55:36;6.70;99.90
4501;DHT22;2263;54.654;9.410;2023-02-17T03:58:20;6.70;99.90
4501;DHT22;2263;54.654;9.410;2023-02-17T04:01:05;6.70;99.90
4501;DHT22;2263;54.654;9.410;2023-02-17T04:03:50;6.70;99.90
4501;DHT22;2263;54.654;9.410;2023-02-17T04:06:34;6.70;99.90
4501;DHT22;2263;54.654;9.410;2023-02-17T04:09:19;6.70;99.90
4501;DHT22;2263;54.654;9.410;2023-02-17T04:12:03;6.70;99.90
4501;DHT22;2263;54.654;9.410;2023-02-17T04:14:48;6.80;99.90
4501;DHT22;2263;54.654;9.410;2023-02-17T04:17:34;6.70;99.90
4501;DHT22;2263;54.654;9.410;2023-02-17T04:20:18;6.80;99.90
4501;DHT22;2263;54.654;9.410;2023-02-17T04:23:03;6.70;99.90
4501;DHT22;2263;54.654;9.410;2023-02-17T04:25:47;6.70;99.90
4501;DHT22;2263;54.654;9.410;2023-02-17T04:28:33;6.70;99.90
4501;DHT22;2263;54.654;9.410;2023-02-17T04:31:18;6.70;99.90
4501;DHT22;2263;54.654;9.410;2023-02-17T04:34:02;6.80;99.90
4501;DHT22;2263;54.654;9.410;2023-02-17T04:36:47;6.80;99.90
4501;DHT22;2263;54.654;9.410;2023-02-17T04:39:31;6.70;99.90
4501;DHT22;2263;54.654;9.410;2023-02-17T04:42:16;6.70;99.90
4501;DHT22;2263;54.654;9.410;2023-02-17T04:45:00;6.80;99.90
4501;DHT22;2263;54.654;9.410;2023-02-17T04:47:44;6.70;99.90
4501;DHT22;2263;54.654;9.410;2023-02-17T04:50:29;6.80;99.90
4501;DHT22;2263;54.654;9.410;2023-02-17T04:53:13;6.80;99.90
4501;DHT22;2263;54.654;9.410;2023-02-17T04:55:58;6.80;99.90
4501;DHT22;2263;54.654;9.410;2023-02-17T04:58:43;6.80;99.90
4501;DHT22;2263;54.654;9.410;2023-02-17T05:01:27;6.80;99.90
4501;DHT22;2263;54.654;9.410;2023-02-17T05:04:11;6.80;99.90
4501;DHT22;2263;54.654;9.410;2023-02-17T05:06:56;6.80;99.90
4501;DHT22;2263;54.654;9.410;2023-02-17T05:09:40;6.80;99.90
4501;DHT22;2263;54.654;9.410;2023-02-17T05:12:25;6.80;99.90
4501;DHT22;2263;54.654;9.410;2023-02-17T05:15:10;6.90;99.90
4501;DHT22;2263;54.654;9.410;2023-02-17T05:17:55;6.80;99.90
4501;DHT22;2263;54.654;9.410;2023-02-17T05:20:39;6.80;99.90
4501;DHT22;2263;54.654;9.410;2023-02-17T05:23:24;6.80;99.90
4501;DHT22;2263;54.654;9.410;2023-02-17T05:26:08;6.90;99.90
4501;DHT22;2263;54.654;9.410;2023-02-17T05:28:52;6.90;99.90
4501;DHT22;2263;54.654;9.410;2023-02-17T05:31:37;6.80;99.90
4501;DHT22;2263;54.654;9.410;2023-02-17T05:34:21;6.80;99.90
4501;DHT22;2263;54.654;9.410;2023-02-17T05:37:06;6.90;99.90
4501;DHT22;2263;54.654;9.410;2023-02-17T05:39:50;6.90;99.90
4501;DHT22;2263;54.654;9.410;2023-02-17T05:42:35;6.90;99.90
4501;DHT22;2263;54.654;9.410;2023-02-17T05:45:19;6.90;99.90
4501;DHT22;2263;54.654;9.410;2023-02-17T05:48:04;6.90;99.90
4501;DHT22;2263;54.654;9.410;2023-02-17T05:50:48;6.90;99.90
4501;DHT22;2263;54.654;9.410;2023-02-17T05:53:33;6.90;99.90
4501;DHT22;2263;54.654;9.410;2023-02-17T05:56:17;6.90;99.90
4501;DHT22;2263;54.654;9.410;2023-02-17T05:59:02;6.90;99.90
4501;DHT22;2263;54.654;9.410;2023-02-17T06:01:46;6.90;99.90
4501;DHT22;2263;54.654;9.410;2023-02-17T06:04:32;6.90;99.90
4501;DHT22;2263;54.654;9.410;2023-02-17T06:07:17;7.00;99.90
4501;DHT22;2263;54.654;9.410;2023-02-17T06:10:02;7.00;99.90
4501;DHT22;2263;54.654;9.410;2023-02-17T06:12:46;7.00;99.90
4501;DHT22;2263;54.654;9.410;2023-02-17T06:15:31;7.00;99.90
4501;DHT22;2263;54.654;9.410;2023-02-17T06:18:15;7.00;99.90
4501;DHT22;2263;54.654;9.410;2023-02-17T06:21:00;7.00;99.90
4501;DHT22;2263;54.654;9.410;2023-02-17T06:23:44;7.00;99.90
4501;DHT22;2263;54.654;9.410;2023-02-17T06:26:28;7.00;99.90
4501;DHT22;2263;54.654;9.410;2023-02-17T06:29:12;7.00;99.90
4501;DHT22;2263;54.654;9.410;2023-02-17T06:31:57;7.00;99.90
4501;DHT22;2263;54.654;9.410;2023-02-17T06:34:41;7.00;99.90
4501;DHT22;2263;54.654;9.410;2023-02-17T06:37:26;7.00;99.90
4501;DHT22;2263;54.654;9.410;2023-02-17T06:40:11;7.00;99.90
4501;DHT22;2263;54.654;9.410;2023-02-17T06:42:55;7.00;99.90
4501;DHT22;2263;54.654;9.410;2023-02-17T06:45:40;7.10;99.90
4501;DHT22;2263;54.654;9.410;2023-02-17T06:48:24;7.10;99.90
4501;DHT22;2263;54.654;9.410;2023-02-17T06:51:09;7.10;99.90
4501;DHT22;2263;54.654;9.410;2023-02-17T06:53:54;7.10;99.90
4501;DHT22;2263;54.654;9.410;2023-02-17T06:56:39;7.10;99.90
4501;DHT22;2263;54.654;9.410;2023-02-17T06:59:23;7.10;99.90
4501;DHT22;2263;54.654;9.410;2023-02-17T07:02:12;7.10;99.90
4501;DHT22;2263;54.654;9.410;2023-02-17T07:04:57;7.10;99.90
4501;DHT22;2263;54.654;9.410;2023-02-17T07:07:41;7.10;99.90
4501;DHT22;2263;54.654;9.410;2023-02-17T07:10:25;7.20;99.90
4501;DHT22;2263;54.654;9.410;2023-02-17T07:13:10;7.10;99.90
4501;DHT22;2263;54.654;9.410;2023-02-17T07:15:54;7.20;99.90
4501;DHT22;2263;54.654;9.410;2023-02-17T07:18:39;7.20;99.90
4501;DHT22;2263;54.654;9.410;2023-02-17T07:21:24;7.20;99.90
4501;DHT22;2263;54.654;9.410;2023-02-17T07:24:08;7.10;99.90
4501;DHT22;2263;54.654;9.410;2023-02-17T07:26:53;7.20;99.90
4501;DHT22;2263;54.654;9.410;2023-02-17T07:29:38;7.20;99.90
4501;DHT22;2263;54.654;9.410;2023-02-17T07:32:23;7.20;99.90
4501;DHT22;2263;54.654;9.410;2023-02-17T07:35:08;7.20;99.90
4501;DHT22;2263;54.654;9.410;2023-02-17T07:37:52;7.20;99.90
4501;DHT22;2263;54.654;9.410;2023-02-17T07:40:37;7.30;99.90
4501;DHT22;2263;54.654;9.410;2023-02-17T07:43:22;7.20;99.90
4501;DHT22;2263;54.654;9.410;2023-02-17T07:46:07;7.20;99.90
4501;DHT22;2263;54.654;9.410;2023-02-17T07:48:52;7.30;99.90
4501;DHT22;2263;54.654;9.410;2023-02-17T07:51:36;7.30;99.90
4501;DHT22;2263;54.654;9.410;2023-02-17T07:54:22;7.30;99.90
4501;DHT22;2263;54.654;9.410;2023-02-17T07:57:07;7.30;99.90
4501;DHT22;2263;54.654;9.410;2023-02-17T07:59:51;7.30;99.90
4501;DHT22;2263;54.654;9.410;2023-02-17T08:02:36;7.30;99.90
4501;DHT22;2263;54.654;9.410;2023-02-17T08:05:20;7.30;99.90
4501;DHT22;2263;54.654;9.410;2023-02-17T08:08:05;7.40;99.90
4501;DHT22;2263;54.654;9.410;2023-02-17T08:11:13;7.30;99.90
4501;DHT22;2263;54.654;9.410;2023-02-17T08:14:17;7.30;99.90
4501;DHT22;2263;54.654;9.410;2023-02-17T08:17:04;7.30;99.90
4501;DHT22;2263;54.654;9.410;2023-02-17T08:19:49;7.30;99.90
4501;DHT22;2263;54.654;9.410;2023-02-17T08:22:33;7.30;99.90
4501;DHT22;2263;54.654;9.410;2023-02-17T08:25:18;7.30;99.90
4501;DHT22;2263;54.654;9.410;2023-02-17T08:28:03;7.40;99.90
4501;DHT22;2263;54.654;9.410;2023-02-17T08:30:48;7.40;99.90
4501;DHT22;2263;54.654;9.410;2023-02-17T08:33:33;7.40;99.90
4501;DHT22;2263;54.654;9.410;2023-02-17T08:36:17;7.40;99.90
4501;DHT22;2263;54.654;9.410;2023-02-17T08:39:10;7.40;99.90
4501;DHT22;2263;54.654;9.410;2023-02-17T08:41:54;7.40;99.90
4501;DHT22;2263;54.654;9.410;2023-02-17T08:44:39;7.40;99.90
4501;DHT22;2263;54.654;9.410;2023-02-17T08:47:23;7.40;99.90
4501;DHT22;2263;54.654;9.410;2023-02-17T08:50:09;7.40;99.90
4501;DHT22;2263;54.654;9.410;2023-02-17T08:52:54;7.50;99.90
4501;DHT22;2263;54.654;9.410;2023-02-17T08:55:39;7.40;99.90
4501;DHT22;2263;54.654;9.410;2023-02-17T08:58:23;7.50;99.90
4501;DHT22;2263;54.654;9.410;2023-02-17T09:01:07;7.50;99.90
4501;DHT22;2263;54.654;9.410;2023-02-17T09:03:53;7.50;99.90
4501;DHT22;2263;54.654;9.410;2023-02-17T09:06:50;7.50;99.90
4501;DHT22;2263;54.654;9.410;2023-02-17T09:09:35;7.60;99.90
4501;DHT22;2263;54.654;9.410;2023-02-17T09:12:19;7.50;99.90
4501;DHT22;2263;54.654;9.410;2023-02-17T09:15:04;7.50;99.90
4501;DHT22;2263;54.654;9.410;2023-02-17T09:17:48;7.50;99.90
4501;DHT22;2263;54.654;9.410;2023-02-17T09:20:32;7.50;99.90
4501;DHT22;2263;54.654;9.410;2023-02-17T09:23:17;7.50;99.90
4501;DHT22;2263;54.654;9.410;2023-02-17T09:26:10;7.60;99.90
4501;DHT22;2263;54.654;9.410;2023-02-17T09:28:54;7.60;99.90
4501;DHT22;2263;54.654;9.410;2023-02-17T09:31:40;7.60;99.90
4501;DHT22;2263;54.654;9.410;2023-02-17T09:34:25;7.50;99.90
4501;DHT22;2263;54.654;9.410;2023-02-17T09:37:11;7.60;99.90
4501;DHT22;2263;54.654;9.410;2023-02-17T09:39:55;7.60;99.90
4501;DHT22;2263;54.654;9.410;2023-02-17T09:42:40;7.60;99.90
4501;DHT22;2263;54.654;9.410;2023-02-17T09:45:26;7.60;99.90
4501;DHT22;2263;54.654;9.410;2023-02-17T09:48:18;7.60;99.90
4501;DHT22;2263;54.654;9.410;2023-02-17T09:52:09;7.60;99.90
4501;DHT22;2263;54.654;9.410;2023-02-17T09:57:39;7.60;99.90
4501;DHT22;2263;54.654;9.410;2023-02-17T10:00:38;7.60;99.90
4501;DHT22;2263;54.654;9.410;2023-02-17T10:03:30;7.50;99.90
4501;DHT22;2263;54.654;9.410;2023-02-17T10:06:32;7.60;99.90
4501;DHT22;2263;54.654;9.410;2023-02-17T10:09:27;7.50;99.90
4501;DHT22;2263;54.654;9.410;2023-02-17T10:12:18;7.60;99.90
4501;DHT22;2263;54.654;9.410;2023-02-17T10:15:09;7.60;99.90
4501;DHT22;2263;54.654;9.410;2023-02-17T10:21:14;7.60;99.90
4501;DHT22;2263;54.654;9.410;2023-02-17T10:24:02;7.60;99.90
4501;DHT22;2263;54.654;9.410;2023-02-17T10:33:24;7.60;99.90
4501;DHT22;2263;54.654;9.410;2023-02-17T10:42:27;7.60;99.90
4501;DHT22;2263;54.654;9.410;2023-02-17T10:48:11;7.60;99.90
4501;DHT22;2263;54.654;9.410;2023-02-17T10:50:59;7.60;99.90
4501;DHT22;2263;54.654;9.410;2023-02-17T10:53:49;7.60;99.90
4501;DHT22;2263;54.654;9.410;2023-02-17T10:56:49;7.60;99.90
4501;DHT22;2263;54.654;9.410;2023-02-17T10:59:39;7.60;99.90
4501;DHT22;2263;54.654;9.410;2023-02-17T11:02:41;7.60;99.90
4501;DHT22;2263;54.654;9.410;2023-02-17T11:05:30;7.60;99.90
4501;DHT22;2263;54.654;9.410;2023-02-17T11:08:36;7.60;99.90
4501;DHT22;2263;54.654;9.410;2023-02-17T11:11:27;7.60;99.90
4501;DHT22;2263;54.654;9.410;2023-02-17T11:14:25;7.60;99.90
4501;DHT22;2263;54.654;9.410;2023-02-17T11:23:22;7.60;99.90
4501;DHT22;2263;54.654;9.410;2023-02-17T11:26:26;7.70;99.90
4501;DHT22;2263;54.654;9.410;2023-02-17T11:29:16;7.70;99.90
4501;DHT22;2263;54.654;9.410;2023-02-17T11:32:07;7.70;99.90
4501;DHT22;2263;54.654;9.410;2023-02-17T11:34:56;7.70;99.90
4501;DHT22;2263;54.654;9.410;2023-02-17T11:37:42;7.70;99.90
4501;DHT22;2263;54.654;9.410;2023-02-17T11:40:30;7.80;99.90
4501;DHT22;2263;54.654;9.410;2023-02-17T11:43:15;7.90;99.90
4501;DHT22;2263;54.654;9.410;2023-02-17T11:49:28;8.00;99.90
4501;DHT22;2263;54.654;9.410;2023-02-17T11:52:53;8.00;99.90
4501;DHT22;2263;54.654;9.410;2023-02-17T12:06:03;8.10;99.90
4501;DHT22;2263;54.654;9.410;2023-02-17T12:15:00;8.20;99.90
4501;DHT22;2263;54.654;9.410;2023-02-17T12:30:25;8.20;99.90
4501;DHT22;2263;54.654;9.410;2023-02-17T12:33:35;8.20;99.90
4501;DHT22;2263;54.654;9.410;2023-02-17T12:36:24;8.30;99.90
4501;DHT22;2263;54.654;9.410;2023-02-17T12:39:14;8.30;99.90
4501;DHT22;2263;54.654;9.410;2023-02-17T12:42:06;8.30;99.90
4501;DHT22;2263;54.654;9.410;2023-02-17T12:45:01;8.30;99.90
4501;DHT22;2263;54.654;9.410;2023-02-17T12:50:51;8.30;99.90
4501;DHT22;2263;54.654;9.410;2023-02-17T12:54:02;8.30;99.90
4501;DHT22;2263;54.654;9.410;2023-02-17T12:57:26;8.30;99.90
4501;DHT22;2263;54.654;9.410;2023-02-17T13:00:02;8.40;99.90
4501;DHT22;2263;54.654;9.410;2023-02-17T13:02:58;8.40;99.90
4501;DHT22;2263;54.654;9.410;2023-02-17T13:06:18;8.40;99.90
4501;DHT22;2263;54.654;9.410;2023-02-17T13:08:59;8.40;99.90
4501;DHT22;2263;54.654;9.410;2023-02-17T13:11:46;8.40;99.90
4501;DHT22;2263;54.654;9.410;2023-02-17T13:14:45;8.40;99.90
4501;DHT22;2263;54.654;9.410;2023-02-17T13:17:52;8.40;99.90
4501;DHT22;2263;54.654;9.410;2023-02-17T13:20:58;8.40;99.90
4501;DHT22;2263;54.654;9.410;2023-02-17T13:23:56;8.40;99.90
4501;DHT22;2263;54.654;9.410;2023-02-17T13:26:45;8.40;99.90
4501;DHT22;2263;54.654;9.410;2023-02-17T13:32:14;8.40;99.90
4501;DHT22;2263;54.654;9.410;2023-02-17T13:37:57;8.50;99.90
4501;DHT22;2263;54.654;9.410;2023-02-17T13:40:42;8.40;99.90
4501;DHT22;2263;54.654;9.410;2023-02-17T13:43:28;8.50;99.90
4501;DHT22;2263;54.654;9.410;2023-02-17T13:46:19;8.50;99.90
4501;DHT22;2263;54.654;9.410;2023-02-17T13:49:05;8.50;99.90
4501;DHT22;2263;54.654;9.410;2023-02-17T13:51:50;8.50;99.90
4501;DHT22;2263;54.654;9.410;2023-02-17T13:54:34;8.50;99.90
4501;DHT22;2263;54.654;9.410;2023-02-17T13:57:29;8.50;99.90
4501;DHT22;2263;54.654;9.410;2023-02-17T14:00:28;8.50;99.90
4501;DHT22;2263;54.654;9.410;2023-02-17T14:06:12;8.50;99.90
4501;DHT22;2263;54.654;9.410;2023-02-17T14:09:20;8.50;99.90
4501;DHT22;2263;54.654;9.410;2023-02-17T14:12:16;8.50;99.90
4501;DHT22;2263;54.654;9.410;2023-02-17T14:15:02;8.50;99.90
4501;DHT22;2263;54.654;9.410;2023-02-17T14:17:47;8.50;99.90
4501;DHT22;2263;54.654;9.410;2023-02-17T14:20:35;8.50;99.90
4501;DHT22;2263;54.654;9.410;2023-02-17T14:23:19;8.50;99.90
4501;DHT22;2263;54.654;9.410;2023-02-17T14:26:13;8.50;99.90
4501;DHT22;2263;54.654;9.410;2023-02-17T14:29:02;8.50;99.90
4501;DHT22;2263;54.654;9.410;2023-02-17T14:31:49;8.60;99.90
4501;DHT22;2263;54.654;9.410;2023-02-17T14:34:35;8.50;99.90
4501;DHT22;2263;54.654;9.410;2023-02-17T14:37:24;8.50;99.90
4501;DHT22;2263;54.654;9.410;2023-02-17T14:40:23;8.50;99.90
4501;DHT22;2263;54.654;9.410;2023-02-17T14:43:07;8.60;99.90
4501;DHT22;2263;54.654;9.410;2023-02-17T14:45:53;8.50;99.90
4501;DHT22;2263;54.654;9.410;2023-02-17T14:48:40;8.50;99.90
4501;DHT22;2263;54.654;9.410;2023-02-17T14:51:31;8.50;99.90
4501;DHT22;2263;54.654;9.410;2023-02-17T14:54:17;8.50;99.90
4501;DHT22;2263;54.654;9.410;2023-02-17T14:57:05;8.50;99.90
4501;DHT22;2263;54.654;9.410;2023-02-17T14:59:49;8.50;99.90
4501;DHT22;2263;54.654;9.410;2023-02-17T15:02:39;8.50;99.90
4501;DHT22;2263;54.654;9.410;2023-02-17T15:05:24;8.50;99.90
4501;DHT22;2263;54.654;9.410;2023-02-17T15:08:15;8.50;99.90
4501;DHT22;2263;54.654;9.410;2023-02-17T15:11:01;8.50;99.90
4501;DHT22;2263;54.654;9.410;2023-02-17T15:13:48;8.50;99.90
4501;DHT22;2263;54.654;9.410;2023-02-17T15:16:33;8.50;99.90
4501;DHT22;2263;54.654;9.410;2023-02-17T15:19:17;8.50;99.90
4501;DHT22;2263;54.654;9.410;2023-02-17T15:22:02;8.40;99.90
4501;DHT22;2263;54.654;9.410;2023-02-17T15:24:47;8.40;99.90
4501;DHT22;2263;54.654;9.410;2023-02-17T15:27:31;8.40;99.90
4501;DHT22;2263;54.654;9.410;2023-02-17T15:30:18;8.40;99.90
4501;DHT22;2263;54.654;9.410;2023-02-17T15:33:03;8.40;99.90
4501;DHT22;2263;54.654;9.410;2023-02-17T15:35:50;8.40;99.90
4501;DHT22;2263;54.654;9.410;2023-02-17T15:38:40;8.40;99.90
4501;DHT22;2263;54.654;9.410;2023-02-17T15:41:26;8.30;99.90
4501;DHT22;2263;54.654;9.410;2023-02-17T15:44:22;8.30;99.90
4501;DHT22;2263;54.654;9.410;2023-02-17T15:47:17;8.30;99.90
4501;DHT22;2263;54.654;9.410;2023-02-17T15:50:02;8.30;99.90
4501;DHT22;2263;54.654;9.410;2023-02-17T15:52:48;8.30;99.90
4501;DHT22;2263;54.654;9.410;2023-02-17T15:55:33;8.30;99.90
4501;DHT22;2263;54.654;9.410;2023-02-17T15:58:20;8.30;99.90
4501;DHT22;2263;54.654;9.410;2023-02-17T16:01:04;8.20;99.90
4501;DHT22;2263;54.654;9.410;2023-02-17T16:03:49;8.20;99.90
4501;DHT22;2263;54.654;9.410;2023-02-17T16:06:33;8.20;99.90
4501;DHT22;2263;54.654;9.410;2023-02-17T16:09:18;8.20;99.90
4501;DHT22;2263;54.654;9.410;2023-02-17T16:12:04;8.20;99.90
4501;DHT22;2263;54.654;9.410;2023-02-17T16:14:49;8.10;99.90
4501;DHT22;2263;54.654;9.410;2023-02-17T16:17:36;8.10;99.90
4501;DHT22;2263;54.654;9.410;2023-02-17T16:20:24;8.10;99.90
4501;DHT22;2263;54.654;9.410;2023-02-17T16:23:09;8.10;99.90
4501;DHT22;2263;54.654;9.410;2023-02-17T16:25:53;8.10;99.90
4501;DHT22;2263;54.654;9.410;2023-02-17T16:28:38;8.10;99.90
4501;DHT22;2263;54.654;9.410;2023-02-17T16:31:23;8.00;99.90
4501;DHT22;2263;54.654;9.410;2023-02-17T16:34:12;8.00;99.90
4501;DHT22;2263;54.654;9.410;2023-02-17T16:36:59;8.00;99.90
4501;DHT22;2263;54.654;9.410;2023-02-17T16:39:44;8.00;99.90
4501;DHT22;2263;54.654;9.410;2023-02-17T16:42:29;7.90;99.90
4501;DHT22;2263;54.654;9.410;2023-02-17T16:45:18;7.90;99.90
4501;DHT22;2263;54.654;9.410;2023-02-17T16:48:06;7.90;99.90
4501;DHT22;2263;54.654;9.410;2023-02-17T16:50:51;7.90;99.90
4501;DHT22;2263;54.654;9.410;2023-02-17T16:53:39;7.90;99.90
4501;DHT22;2263;54.654;9.410;2023-02-17T16:56:32;7.90;99.90
4501;DHT22;2263;54.654;9.410;2023-02-17T16:59:20;7.90;99.90
4501;DHT22;2263;54.654;9.410;2023-02-17T17:02:07;7.80;99.90
4501;DHT22;2263;54.654;9.410;2023-02-17T17:04:52;7.80;99.90
4501;DHT22;2263;54.654;9.410;2023-02-17T17:07:38;7.80;99.90
4501;DHT22;2263;54.654;9.410;2023-02-17T17:10:25;7.80;99.90
4501;DHT22;2263;54.654;9.410;2023-02-17T17:13:11;7.80;99.90
4501;DHT22;2263;54.654;9.410;2023-02-17T17:15:55;7.80;99.90
4501;DHT22;2263;54.654;9.410;2023-02-17T17:18:40;7.80;99.90
4501;DHT22;2263;54.654;9.410;2023-02-17T17:21:27;7.70;99.90
4501;DHT22;2263;54.654;9.410;2023-02-17T17:24:12;7.70;99.90
4501;DHT22;2263;54.654;9.410;2023-02-17T17:26:56;7.70;99.90
4501;DHT22;2263;54.654;9.410;2023-02-17T17:29:40;7.70;99.90
4501;DHT22;2263;54.654;9.410;2023-02-17T17:32:25;7.70;99.90
4501;DHT22;2263;54.654;9.410;2023-02-17T17:35:09;7.70;99.90
4501;DHT22;2263;54.654;9.410;2023-02-17T17:37:54;7.70;99.90
4501;DHT22;2263;54.654;9.410;2023-02-17T17:40:40;7.70;99.90
4501;DHT22;2263;54.654;9.410;2023-02-17T17:43:35;7.70;99.90
4501;DHT22;2263;54.654;9.410;2023-02-17T17:46:25;7.70;99.90
4501;DHT22;2263;54.654;9.410;2023-02-17T17:49:13;7.70;99.90
4501;DHT22;2263;54.654;9.410;2023-02-17T17:51:57;7.70;99.90
4501;DHT22;2263;54.654;9.410;2023-02-17T17:54:42;7.60;99.90
4501;DHT22;2263;54.654;9.410;2023-02-17T17:57:26;7.60;99.90
4501;DHT22;2263;54.654;9.410;2023-02-17T18:00:13;7.60;99.90
4501;DHT22;2263;54.654;9.410;2023-02-17T18:02:58;7.60;99.90
4501;DHT22;2263;54.654;9.410;2023-02-17T18:05:42;7.60;99.90
4501;DHT22;2263;54.654;9.410;2023-02-17T18:08:27;7.60;99.90
4501;DHT22;2263;54.654;9.410;2023-02-17T18:11:18;7.60;99.90
4501;DHT22;2263;54.654;9.410;2023-02-17T18:14:07;7.60;99.90
4501;DHT22;2263;54.654;9.410;2023-02-17T18:16:52;7.60;99.90
4501;DHT22;2263;54.654;9.410;2023-02-17T18:19:36;7.60;99.90
4501;DHT22;2263;54.654;9.410;2023-02-17T18:22:21;7.60;99.90
4501;DHT22;2263;54.654;9.410;2023-02-17T18:25:06;7.60;99.90
4501;DHT22;2263;54.654;9.410;2023-02-17T18:27:51;7.60;99.90
4501;DHT22;2263;54.654;9.410;2023-02-17T18:30:35;7.60;99.90
4501;DHT22;2263;54.654;9.410;2023-02-17T18:33:20;7.60;99.90
4501;DHT22;2263;54.654;9.410;2023-02-17T18:36:09;7.50;99.90
4501;DHT22;2263;54.654;9.410;2023-02-17T18:38:53;7.50;99.90
4501;DHT22;2263;54.654;9.410;2023-02-17T18:41:38;7.50;99.90
4501;DHT22;2263;54.654;9.410;2023-02-17T18:44:23;7.50;99.90
4501;DHT22;2263;54.654;9.410;2023-02-17T18:47:07;7.50;99.90
4501;DHT22;2263;54.654;9.410;2023-02-17T18:49:52;7.50;99.90
4501;DHT22;2263;54.654;9.410;2023-02-17T18:52:37;7.50;99.90
4501;DHT22;2263;54.654;9.410;2023-02-17T18:55:22;7.40;99.90
4501;DHT22;2263;54.654;9.410;2023-02-17T18:58:06;7.50;99.90
4501;DHT22;2263;54.654;9.410;2023-02-17T19:00:51;7.40;99.90
4501;DHT22;2263;54.654;9.410;2023-02-17T19:03:35;7.50;99.90
4501;DHT22;2263;54.654;9.410;2023-02-17T19:06:23;7.50;99.90
4501;DHT22;2263;54.654;9.410;2023-02-17T19:09:08;7.40;99.90
4501;DHT22;2263;54.654;9.410;2023-02-17T19:11:52;7.40;99.90
4501;DHT22;2263;54.654;9.410;2023-02-17T19:14:37;7.40;99.90
4501;DHT22;2263;54.654;9.410;2023-02-17T19:17:22;7.40;99.90
4501;DHT22;2263;54.654;9.410;2023-02-17T19:20:07;7.40;99.90
4501;DHT22;2263;54.654;9.410;2023-02-17T19:22:52;7.40;99.90
4501;DHT22;2263;54.654;9.410;2023-02-17T19:25:37;7.40;99.90
4501;DHT22;2263;54.654;9.410;2023-02-17T19:28:21;7.40;99.90
4501;DHT22;2263;54.654;9.410;2023-02-17T19:31:12;7.40;99.90
4501;DHT22;2263;54.654;9.410;2023-02-17T19:33:57;7.40;99.90
4501;DHT22;2263;54.654;9.410;2023-02-17T19:36:41;7.30;99.90
4501;DHT22;2263;54.654;9.410;2023-02-17T19:39:26;7.30;99.90
4501;DHT22;2263;54.654;9.410;2023-02-17T19:42:10;7.30;99.90
4501;DHT22;2263;54.654;9.410;2023-02-17T19:44:55;7.30;99.90
4501;DHT22;2263;54.654;9.410;2023-02-17T19:47:39;7.20;99.90
4501;DHT22;2263;54.654;9.410;2023-02-17T19:50:24;7.30;99.90
4501;DHT22;2263;54.654;9.410;2023-02-17T19:53:09;7.20;99.90
4501;DHT22;2263;54.654;9.410;2023-02-17T19:55:53;7.20;99.90
4501;DHT22;2263;54.654;9.410;2023-02-17T19:58:38;7.20;99.90
4501;DHT22;2263;54.654;9.410;2023-02-17T20:01:24;7.20;99.90
4501;DHT22;2263;54.654;9.410;2023-02-17T20:04:09;7.20;99.90
4501;DHT22;2263;54.654;9.410;2023-02-17T20:06:53;7.20;99.90